createdAt,value
2023-03-03T00:02:17.334Z,3.20
2023-03-03T00:04:54.045Z,3.30
2023-03-03T00:07:32.354Z,3.30
2023-03-03T00:10:10.178Z,3.20
2023-03-03T00:13:07.316Z,3.20
2023-03-03T00:15:50.355Z,3.40
2023-03-03T00:18:36.891Z,3.20
2023-03-03T00:21:25.146Z,3.20
2023-03-03T00:23:59.640Z,3.10
2023-03-03T00:26:34.129Z,3.20
2023-03-03T00:29:20.976Z,3.40
2023-03-03T00:31:49.474Z,3.20
2023-03-03T00:34:37.509Z,3.30
2023-03-03T00:37:33.248Z,3.10
2023-03-03T00:40:21.496Z,3.30
2023-03-03T00:43:02.981Z,3.40
2023-03-03T00:45:47.763Z,3.40
2023-03-03T00:48:36.914Z,3.40
2023-03-03T00:51:34.656Z,3.30
2023-03-03T00:54:03.471Z,3.50
2023-03-03T00:56:37.875Z,3.40
2023-03-03T00:59:12.776Z,3.40
2023-03-03T01:01:49.405Z,3.50
2023-03-03T01:04:28.330Z,3.40
2023-03-03T01:07:08.899Z,3.30
2023-03-03T01:09:53.358Z,3.50
2023-03-03T01:12:32.721Z,3.50
2023-03-03T01:15:07.282Z,3.50
2023-03-03T01:17:55.713Z,3.40
2023-03-03T01:20:29.820Z,3.40
2023-03-03T01:23:04.631Z,3.50
2023-03-03T01:25:40.192Z,3.30
2023-03-03T01:28:19.960Z,3.30
2023-03-03T01:31:03.907Z,3.10
2023-03-03T01:33:49.096Z,3.00
2023-03-03T01:36:30.392Z,3.00
2023-03-03T01:39:01.673Z,2.90
2023-03-03T01:41:32.415Z,3.10
2023-03-03T01:44:09.821Z,2.90
2023-03-03T01:46:55.843Z,2.90
2023-03-03T01:49:38.644Z,2.90
2023-03-03T01:52:27.540Z,3.00
2023-03-03T01:55:06.157Z,3.10
2023-03-03T01:57:40.017Z,2.80
2023-03-03T02:00:10.024Z,2.80
2023-03-03T02:02:48.442Z,2.80
2023-03-03T02:05:22.474Z,2.70
2023-03-03T02:07:52.717Z,2.70
2023-03-03T02:10:22.686Z,2.70
2023-03-03T02:13:01.599Z,2.60
2023-03-03T02:15:36.081Z,2.60
2023-03-03T02:18:19.181Z,2.60
2023-03-03T02:21:08.605Z,2.70
2023-03-03T02:23:49.855Z,2.60
2023-03-03T02:26:43.764Z,2.70
2023-03-03T02:29:22.339Z,2.70
2023-03-03T02:31:51.111Z,2.70
2023-03-03T02:34:26.482Z,2.70
2023-03-03T02:37:02.944Z,2.90
2023-03-03T02:39:31.266Z,2.80
2023-03-03T02:42:27.537Z,2.80
2023-03-03T02:45:10.557Z,2.70
2023-03-03T02:47:41.387Z,2.90
2023-03-03T02:50:20.186Z,2.80
2023-03-03T02:52:55.074Z,2.60
2023-03-03T02:55:37.203Z,2.50
2023-03-03T02:58:14.450Z,2.70
2023-03-03T03:00:47.488Z,2.40
2023-03-03T03:03:28.455Z,2.40
2023-03-03T03:06:08.610Z,2.40
2023-03-03T03:11:51.059Z,2.50
2023-03-03T03:14:27.283Z,2.50
2023-03-03T03:17:08.084Z,2.40
2023-03-03T03:19:39.470Z,2.50
2023-03-03T03:22:12.180Z,2.50
2023-03-03T03:24:44.423Z,2.20
2023-03-03T03:27:17.776Z,2.50
2023-03-03T03:29:54.954Z,2.30
2023-03-03T03:32:39.445Z,2.30
2023-03-03T03:35:09.154Z,2.30
2023-03-03T03:37:44.254Z,2.10
2023-03-03T03:40:20.737Z,2.20
2023-03-03T03:42:51.146Z,2.20
2023-03-03T03:45:32.109Z,2.00
2023-03-03T03:48:00.717Z,2.00
2023-03-03T03:50:48.514Z,2.00
2023-03-03T03:53:25.719Z,1.90
2023-03-03T03:55:54.394Z,2.20
2023-03-03T03:58:22.938Z,2.00
2023-03-03T04:01:12.641Z,2.00
2023-03-03T04:03:49.778Z,1.90
2023-03-03T04:06:21.889Z,1.90
2023-03-03T04:08:50.166Z,1.90
2023-03-03T04:11:30.029Z,1.90
2023-03-03T04:14:09.426Z,2.00
2023-03-03T04:16:49.663Z,1.90
2023-03-03T04:19:29.183Z,1.90
2023-03-03T04:22:01.912Z,2.00
2023-03-03T04:24:39.432Z,1.80
2023-03-03T04:27:13.791Z,1.80
2023-03-03T04:29:53.485Z,1.80
2023-03-03T04:32:29.210Z,2.00
2023-03-03T04:35:08.142Z,2.00
2023-03-03T04:37:47.624Z,2.10
2023-03-03T04:40:19.441Z,1.80
2023-03-03T04:42:50.500Z,2.10
2023-03-03T04:45:19.528Z,1.90
2023-03-03T04:47:52.992Z,2.00
2023-03-03T04:50:26.824Z,1.80
2023-03-03T04:53:03.650Z,2.10
2023-03-03T04:55:40.586Z,2.00
2023-03-03T04:58:22.196Z,2.10
2023-03-03T05:00:56.759Z,2.10
2023-03-03T05:03:32.612Z,2.10
2023-03-03T05:06:03.858Z,1.90
2023-03-03T05:08:35.904Z,1.90
2023-03-03T05:11:12.675Z,2.00
2023-03-03T05:13:47.658Z,2.20
2023-03-03T05:16:15.980Z,2.10
2023-03-03T05:18:47.544Z,2.20
2023-03-03T05:21:17.603Z,2.40
2023-03-03T05:23:48.673Z,2.30
2023-03-03T05:26:23.883Z,2.40
2023-03-03T05:28:54.603Z,2.50
2023-03-03T05:31:33.483Z,2.50
2023-03-03T05:34:09.779Z,2.60
2023-03-03T05:36:47.901Z,2.50
2023-03-03T05:39:16.498Z,2.40
2023-03-03T05:41:44.851Z,2.70
2023-03-03T05:44:13.332Z,2.50
2023-03-03T05:46:42.705Z,2.70
2023-03-03T05:49:22.845Z,2.30
2023-03-03T05:51:58.135Z,2.50
2023-03-03T05:54:37.059Z,2.30
2023-03-03T05:57:15.684Z,2.40
2023-03-03T05:59:51.630Z,2.30
2023-03-03T06:02:27.720Z,2.40
2023-03-03T06:05:05.371Z,2.70
2023-03-03T06:07:43.399Z,2.70
2023-03-03T06:10:16.647Z,2.40
2023-03-03T06:13:01.170Z,2.40
2023-03-03T06:18:31.256Z,2.60
2023-03-03T06:21:13.977Z,2.50
2023-03-03T06:23:49.574Z,2.50
2023-03-03T06:26:27.554Z,2.60
2023-03-03T06:28:59.368Z,2.70
2023-03-03T06:31:35.364Z,2.70
2023-03-03T06:34:09.984Z,2.80
2023-03-03T06:36:49.507Z,2.70
2023-03-03T06:39:31.527Z,2.40
2023-03-03T06:42:10.389Z,2.50
2023-03-03T06:44:41.632Z,2.60
2023-03-03T06:47:10.091Z,2.50
2023-03-03T06:49:38.678Z,2.30
2023-03-03T06:52:14.754Z,2.30
2023-03-03T06:54:52.514Z,2.30
2023-03-03T06:58:06.297Z,2.50
2023-03-03T07:00:47.271Z,2.50
2023-03-03T07:03:32.859Z,2.50
2023-03-03T07:06:16.932Z,2.30
2023-03-03T07:08:53.767Z,2.40
2023-03-03T07:11:24.267Z,2.50
2023-03-03T07:13:54.357Z,2.40
2023-03-03T07:16:27.890Z,2.50
2023-03-03T07:18:58.532Z,2.70
2023-03-03T07:21:37.273Z,2.50
2023-03-03T07:24:37.172Z,2.60
2023-03-03T07:27:16.659Z,2.60
2023-03-03T07:29:47.277Z,2.60
2023-03-03T07:32:39.583Z,2.80
2023-03-03T07:35:32.303Z,2.60
2023-03-03T07:38:16.173Z,2.80
2023-03-03T08:05:20.677Z,2.50
2023-03-03T08:07:52.252Z,2.50
2023-03-03T08:10:42.406Z,2.50
2023-03-03T08:16:49.796Z,2.60
2023-03-03T08:20:14.479Z,2.80
2023-03-03T08:23:38.841Z,3.00
2023-03-03T08:34:02.242Z,2.90
2023-03-03T08:37:00.400Z,2.70
2023-03-03T08:39:33.465Z,2.90
2023-03-03T08:53:57.891Z,2.80
2023-03-03T09:00:02.721Z,2.80
2023-03-03T09:06:13.506Z,2.80
2023-03-03T09:08:43.213Z,2.80
2023-03-03T09:14:11.328Z,2.90
2023-03-03T09:16:49.204Z,3.00
2023-03-03T09:19:41.755Z,3.10
2023-03-03T09:22:33.418Z,3.20
2023-03-03T09:25:05.770Z,3.10
2023-03-03T09:27:46.526Z,3.20
2023-03-03T09:30:38.625Z,3.10
2023-03-03T09:36:35.684Z,3.20
2023-03-03T09:42:45.487Z,3.30
2023-03-03T09:45:48.539Z,3.10
2023-03-03T09:48:50.038Z,3.00
2023-03-03T09:51:35.809Z,2.80
2023-03-03T09:54:27.877Z,2.90
2023-03-03T09:57:06.328Z,2.70
2023-03-03T10:21:10.955Z,3.10
2023-03-03T10:24:00.891Z,3.20
2023-03-03T12:26:04.525Z,3.80
2023-03-03T12:28:46.683Z,3.80
2023-03-03T13:52:12.871Z,4.40
2023-03-03T14:45:30.142Z,4.70
2023-03-03T14:48:36.698Z,4.70
2023-03-03T14:56:02.812Z,4.50
2023-03-03T14:59:24.496Z,4.50
2023-03-03T15:12:02.672Z,4.50
2023-03-03T15:43:11.187Z,4.30
2023-03-03T15:45:58.058Z,4.20
2023-03-03T16:02:59.187Z,4.30
2023-03-03T16:05:33.133Z,4.30
2023-03-03T16:08:06.485Z,4.30
2023-03-03T16:10:45.358Z,4.20
2023-03-03T16:13:52.449Z,4.40
2023-03-03T16:16:35.534Z,4.20
2023-03-03T16:19:22.262Z,4.30
2023-03-03T16:22:12.715Z,4.30
2023-03-03T16:24:57.360Z,4.20
2023-03-03T16:27:36.677Z,4.20
2023-03-03T16:30:20.761Z,4.10
2023-03-03T16:32:54.754Z,4.00
2023-03-03T16:35:30.883Z,4.10
2023-03-03T16:38:03.259Z,4.10
2023-03-03T16:40:34.946Z,4.30
2023-03-03T16:43:15.057Z,4.30
2023-03-03T16:45:45.313Z,4.10
2023-03-03T16:48:24.040Z,4.20
2023-03-03T16:51:05.275Z,4.00
2023-03-03T16:53:48.949Z,4.00
2023-03-03T16:56:23.942Z,4.00
2023-03-03T16:59:05.361Z,4.00
2023-03-03T17:01:41.000Z,4.10
2023-03-03T17:04:16.355Z,3.90
2023-03-03T17:06:51.434Z,4.10
2023-03-03T17:09:34.544Z,3.80
2023-03-03T17:12:14.053Z,3.70
2023-03-03T17:16:11.978Z,3.90
2023-03-03T17:23:47.049Z,3.60
2023-03-03T17:46:20.378Z,3.80
2023-03-03T18:45:25.449Z,4.20
2023-03-03T18:48:57.027Z,4.20
2023-03-03T19:24:35.722Z,4.40
2023-03-03T19:27:35.717Z,4.40
2023-03-03T19:36:24.060Z,4.30
2023-03-03T19:40:19.000Z,4.50
2023-03-03T19:42:58.642Z,4.20
2023-03-03T19:50:50.384Z,4.40
2023-03-03T20:09:04.622Z,4.20
2023-03-03T20:11:52.779Z,4.20
2023-03-03T20:14:39.049Z,4.20
2023-03-03T20:18:11.744Z,4.20
2023-03-03T20:21:01.167Z,4.30
2023-03-03T20:27:21.217Z,4.20
2023-03-03T20:39:12.691Z,4.20
2023-03-03T21:37:42.115Z,4.30
2023-03-03T21:43:38.417Z,4.30
2023-03-03T21:46:07.252Z,4.30
2023-03-03T21:51:42.572Z,4.30
2023-03-03T21:55:29.511Z,4.30
2023-03-03T21:58:25.345Z,4.20
2023-03-03T22:00:53.849Z,4.30
2023-03-03T22:03:23.969Z,4.30
2023-03-03T22:06:04.725Z,4.30
2023-03-03T22:08:58.661Z,4.30
2023-03-03T22:11:27.722Z,4.50
2023-03-03T22:14:10.739Z,4.30
2023-03-03T22:16:40.252Z,4.40
2023-03-03T22:19:24.020Z,4.40
2023-03-03T22:22:09.329Z,4.40
2023-03-03T22:25:01.734Z,4.40
2023-03-03T22:36:22.295Z,4.30
2023-03-03T22:38:51.139Z,4.30
2023-03-03T22:41:26.041Z,4.30
2023-03-03T22:44:53.773Z,4.30
2023-03-03T22:47:22.600Z,4.30
2023-03-03T22:49:55.879Z,4.40
2023-03-03T22:52:25.631Z,4.20
2023-03-03T22:55:04.503Z,4.20
2023-03-03T22:57:54.812Z,4.20
2023-03-03T23:04:40.000Z,4.30
2023-03-03T23:07:09.816Z,4.20
2023-03-03T23:09:43.466Z,4.20
2023-03-03T23:16:02.760Z,4.20
2023-03-03T23:18:43.569Z,4.20
2023-03-03T23:21:26.955Z,4.20
2023-03-03T23:24:36.244Z,4.50
2023-03-03T23:27:09.076Z,4.50
2023-03-03T23:29:50.170Z,4.30
2023-03-03T23:34:31.832Z,4.40
2023-03-03T23:37:23.626Z,4.40
2023-03-03T23:40:49.511Z,4.40
2023-03-03T23:43:19.568Z,4.30
2023-03-03T23:45:47.890Z,4.40
2023-03-03T23:48:21.317Z,4.30
2023-03-03T23:50:50.746Z,4.40
2023-03-03T23:53:19.751Z,4.40
2023-03-03T23:58:32.848Z,4.40
